Pacific Ram — WDG2113 — position and weather

sailwx.info

Track history (hours):
 
Tides and Currents Weather Stations Pressure Air Temp Water Temp Dewpoint Dewpoint Depression Visibility Wind Speed Wind Dir Waves Ship Positions

Pacific Ram

Owner: TRIDENT SEAFOODS CORP, SEATTLE, WA. More information available from US FCC via Universal Licensing System and Coast Guard Vessel Documentation Center.

Last reported at 2018-Jan-18 06:02 UTC. Time now 2018-Apr-21 15:33 UTC.
Position N 54°25' W 131°05'.
Warning: this ship's position is months out of date.

Length 35 m.

Type: Fishing. MMSI: 338494100.

Date/timePositionNaut miles runAvg speedWind from/ knotsBaromVisibWave heightAir tempDewpointWater temp
2018-Jan-18 06:02N 54°25' W 131°05'211.0
2018-Jan-18 05:53N 54°24' W 131°03'410.9
2018-Jan-18 05:28N 54°21' W 130°58'510.0
2018-Jan-18 05:00N 54°18' W 130°52'510.0
2018-Jan-18 04:31N 54°16' W 130°44'510.1
2018-Jan-18 04:00N 54°14' W 130°36'510.3
2018-Jan-18 03:30N 54°11' W 130°29'510.6
2018-Jan-18 03:00N 54°07' W 130°23'510.8
2018-Jan-18 02:30N 54°03' W 130°16'611.0
2018-Jan-18 02:00N 53°58' W 130°12'5 9.8
2018-Jan-18 01:30N 53°54' W 130°08'510.8
2018-Jan-18 01:00N 53°51' W 130°01'  
Track history (hours):
 
Tides and Currents Weather Stations Pressure Air Temp Water Temp Dewpoint Dewpoint Depression Visibility Wind Speed Wind Dir Waves Ship Positions

Pacific Ram

Owner: TRIDENT SEAFOODS CORP, SEATTLE, WA. More information available from US FCC via Universal Licensing System and Coast Guard Vessel Documentation Center.

Last reported at 2018-Jan-18 06:02 UTC. Time now 2018-Apr-21 15:33 UTC.
Position N 54°25' W 131°05'.
Warning: this ship's position is months out of date.

Length 35 m.

Type: Fishing. MMSI: 338494100.

Date/timePositionNaut miles runAvg speedWind from/ knotsBaromVisibWave heightAir tempDewpointWater temp
2018-Jan-18 06:02N 54°25' W 131°05'211.0
2018-Jan-18 05:53N 54°24' W 131°03'410.9
2018-Jan-18 05:28N 54°21' W 130°58'510.0
2018-Jan-18 05:00N 54°18' W 130°52'510.0
2018-Jan-18 04:31N 54°16' W 130°44'510.1
2018-Jan-18 04:00N 54°14' W 130°36'510.3
2018-Jan-18 03:30N 54°11' W 130°29'510.6
2018-Jan-18 03:00N 54°07' W 130°23'510.8
2018-Jan-18 02:30N 54°03' W 130°16'611.0
2018-Jan-18 02:00N 53°58' W 130°12'5 9.8
2018-Jan-18 01:30N 53°54' W 130°08'510.8
2018-Jan-18 01:00N 53°51' W 130°01'  

Dump ship's entire track history